sensor_id;sensor_type;location;lat;lon;timestamp;temperature;humidity
65044;DHT22;51617;48.158;16.464;2023-02-16T00:00:40;1.20;99.90
65044;DHT22;51617;48.158;16.464;2023-02-16T00:03:14;1.20;99.90
65044;DHT22;51617;48.158;16.464;2023-02-16T00:05:40;1.10;99.90
65044;DHT22;51617;48.158;16.464;2023-02-16T00:08:06;1.00;99.90
65044;DHT22;51617;48.158;16.464;2023-02-16T00:10:34;1.00;99.90
65044;DHT22;51617;48.158;16.464;2023-02-16T00:13:00;0.90;99.90
65044;DHT22;51617;48.158;16.464;2023-02-16T00:15:45;0.90;99.90
65044;DHT22;51617;48.158;16.464;2023-02-16T00:18:17;0.70;99.90
65044;DHT22;51617;48.158;16.464;2023-02-16T00:20:43;0.80;99.90
65044;DHT22;51617;48.158;16.464;2023-02-16T00:23:09;0.70;99.90
65044;DHT22;51617;48.158;16.464;2023-02-16T00:25:35;0.60;99.90
65044;DHT22;51617;48.158;16.464;2023-02-16T00:28:14;0.50;99.90
65044;DHT22;51617;48.158;16.464;2023-02-16T00:30:40;0.40;99.90
65044;DHT22;51617;48.158;16.464;2023-02-16T00:33:17;0.30;99.90
65044;DHT22;51617;48.158;16.464;2023-02-16T00:35:44;0.20;99.90
65044;DHT22;51617;48.158;16.464;2023-02-16T00:38:10;0.20;99.90
65044;DHT22;51617;48.158;16.464;2023-02-16T00:40:36;0.30;99.90
65044;DHT22;51617;48.158;16.464;2023-02-16T00:43:02;0.30;99.90
65044;DHT22;51617;48.158;16.464;2023-02-16T00:45:30;0.30;99.90
65044;DHT22;51617;48.158;16.464;2023-02-16T00:47:56;0.30;99.90
65044;DHT22;51617;48.158;16.464;2023-02-16T00:50:33;0.30;99.90
65044;DHT22;51617;48.158;16.464;2023-02-16T00:52:59;0.20;99.90
65044;DHT22;51617;48.158;16.464;2023-02-16T00:55:29;0.20;99.90
65044;DHT22;51617;48.158;16.464;2023-02-16T00:58:06;0.20;99.90
65044;DHT22;51617;48.158;16.464;2023-02-16T01:00:35;0.20;99.90
65044;DHT22;51617;48.158;16.464;2023-02-16T01:03:06;0.30;99.90
65044;DHT22;51617;48.158;16.464;2023-02-16T01:05:32;0.50;99.90
65044;DHT22;51617;48.158;16.464;2023-02-16T01:07:58;0.60;99.90
65044;DHT22;51617;48.158;16.464;2023-02-16T01:10:43;0.50;99.80
65044;DHT22;51617;48.158;16.464;2023-02-16T01:13:28;0.50;99.70
65044;DHT22;51617;48.158;16.464;2023-02-16T01:15:55;0.40;99.40
65044;DHT22;51617;48.158;16.464;2023-02-16T01:18:22;0.30;99.30
65044;DHT22;51617;48.158;16.464;2023-02-16T01:20:48;0.20;99.40
65044;DHT22;51617;48.158;16.464;2023-02-16T01:23:14;0.20;99.70
65044;DHT22;51617;48.158;16.464;2023-02-16T01:25:40;0.20;99.70
65044;DHT22;51617;48.158;16.464;2023-02-16T01:28:23;0.30;99.70
65044;DHT22;51617;48.158;16.464;2023-02-16T01:30:50;0.40;99.60
65044;DHT22;51617;48.158;16.464;2023-02-16T01:33:16;0.40;99.60
65044;DHT22;51617;48.158;16.464;2023-02-16T01:35:43;0.30;99.60
65044;DHT22;51617;48.158;16.464;2023-02-16T01:38:22;0.30;99.40
65044;DHT22;51617;48.158;16.464;2023-02-16T01:41:10;0.30;99.40
65044;DHT22;51617;48.158;16.464;2023-02-16T01:43:54;0.30;99.50
65044;DHT22;51617;48.158;16.464;2023-02-16T01:47:01;0.30;99.40
65044;DHT22;51617;48.158;16.464;2023-02-16T01:49:18;0.30;99.60
65044;DHT22;51617;48.158;16.464;2023-02-16T01:52:01;0.40;99.70
65044;DHT22;51617;48.158;16.464;2023-02-16T01:54:43;0.50;99.70
65044;DHT22;51617;48.158;16.464;2023-02-16T02:02:25;0.40;98.70
65044;DHT22;51617;48.158;16.464;2023-02-16T02:04:55;0.20;98.80
65044;DHT22;51617;48.158;16.464;2023-02-16T02:07:45;0.00;98.90
65044;DHT22;51617;48.158;16.464;2023-02-16T02:13:41;-0.10;99.30
65044;DHT22;51617;48.158;16.464;2023-02-16T02:16:09;-0.10;99.50
65044;DHT22;51617;48.158;16.464;2023-02-16T02:18:35;0.10;99.80
65044;DHT22;51617;48.158;16.464;2023-02-16T02:36:49;-0.40;98.50
65044;DHT22;51617;48.158;16.464;2023-02-16T02:42:03;-0.40;99.90
65044;DHT22;51617;48.158;16.464;2023-02-16T02:44:49;-0.30;99.80
65044;DHT22;51617;48.158;16.464;2023-02-16T02:47:16;-0.30;99.80
65044;DHT22;51617;48.158;16.464;2023-02-16T02:49:52;-0.20;99.80
65044;DHT22;51617;48.158;16.464;2023-02-16T02:52:19;-0.30;99.90
65044;DHT22;51617;48.158;16.464;2023-02-16T02:54:46;-0.30;99.90
65044;DHT22;51617;48.158;16.464;2023-02-16T02:57:39;-0.30;99.90
65044;DHT22;51617;48.158;16.464;2023-02-16T03:00:37;-0.30;99.90
65044;DHT22;51617;48.158;16.464;2023-02-16T03:03:28;-0.30;99.90
65044;DHT22;51617;48.158;16.464;2023-02-16T03:06:02;-0.20;99.90
65044;DHT22;51617;48.158;16.464;2023-02-16T03:08:31;-0.10;99.90
65044;DHT22;51617;48.158;16.464;2023-02-16T03:11:03;0.00;99.90
65044;DHT22;51617;48.158;16.464;2023-02-16T03:14:02;0.10;99.90
65044;DHT22;51617;48.158;16.464;2023-02-16T03:16:45;0.20;99.90
65044;DHT22;51617;48.158;16.464;2023-02-16T03:19:13;0.30;99.90
65044;DHT22;51617;48.158;16.464;2023-02-16T03:21:59;0.40;99.80
65044;DHT22;51617;48.158;16.464;2023-02-16T03:24:44;0.30;99.50
65044;DHT22;51617;48.158;16.464;2023-02-16T03:27:36;0.40;99.80
65044;DHT22;51617;48.158;16.464;2023-02-16T03:30:23;0.40;99.90
65044;DHT22;51617;48.158;16.464;2023-02-16T03:32:50;0.40;99.90
65044;DHT22;51617;48.158;16.464;2023-02-16T03:35:17;0.50;99.90
65044;DHT22;51617;48.158;16.464;2023-02-16T03:37:44;0.50;99.90
65044;DHT22;51617;48.158;16.464;2023-02-16T03:40:12;0.60;99.90
65044;DHT22;51617;48.158;16.464;2023-02-16T03:43:12;0.70;99.90
65044;DHT22;51617;48.158;16.464;2023-02-16T03:45:40;0.80;99.90
65044;DHT22;51617;48.158;16.464;2023-02-16T03:48:07;0.80;99.90
65044;DHT22;51617;48.158;16.464;2023-02-16T03:50:33;0.90;99.90
65044;DHT22;51617;48.158;16.464;2023-02-16T03:52:58;0.90;99.90
65044;DHT22;51617;48.158;16.464;2023-02-16T03:55:34;1.00;99.80
65044;DHT22;51617;48.158;16.464;2023-02-16T03:58:00;0.90;99.80
65044;DHT22;51617;48.158;16.464;2023-02-16T04:00:26;1.00;99.80
65044;DHT22;51617;48.158;16.464;2023-02-16T04:02:52;1.10;99.90
65044;DHT22;51617;48.158;16.464;2023-02-16T04:05:18;1.10;99.90
65044;DHT22;51617;48.158;16.464;2023-02-16T04:07:44;1.20;99.90
65044;DHT22;51617;48.158;16.464;2023-02-16T04:10:09;1.30;99.50
65044;DHT22;51617;48.158;16.464;2023-02-16T04:12:35;1.30;99.70
65044;DHT22;51617;48.158;16.464;2023-02-16T04:15:09;1.30;99.70
65044;DHT22;51617;48.158;16.464;2023-02-16T04:17:35;1.30;99.80
65044;DHT22;51617;48.158;16.464;2023-02-16T04:20:01;1.40;99.90
65044;DHT22;51617;48.158;16.464;2023-02-16T04:22:26;1.50;99.60
65044;DHT22;51617;48.158;16.464;2023-02-16T04:24:52;1.50;99.60
65044;DHT22;51617;48.158;16.464;2023-02-16T04:27:18;1.50;99.80
65044;DHT22;51617;48.158;16.464;2023-02-16T04:29:43;1.60;99.80
65044;DHT22;51617;48.158;16.464;2023-02-16T04:32:09;1.60;99.70
65044;DHT22;51617;48.158;16.464;2023-02-16T04:34:35;1.60;99.80
65044;DHT22;51617;48.158;16.464;2023-02-16T04:37:00;1.60;99.90
65044;DHT22;51617;48.158;16.464;2023-02-16T04:39:27;1.80;99.90
65044;DHT22;51617;48.158;16.464;2023-02-16T04:41:52;1.80;99.50
65044;DHT22;51617;48.158;16.464;2023-02-16T04:44:18;1.80;99.70
65044;DHT22;51617;48.158;16.464;2023-02-16T04:46:44;1.80;99.60
65044;DHT22;51617;48.158;16.464;2023-02-16T04:49:10;1.80;99.80
65044;DHT22;51617;48.158;16.464;2023-02-16T04:51:35;1.80;99.90
65044;DHT22;51617;48.158;16.464;2023-02-16T04:54:01;1.80;99.90
65044;DHT22;51617;48.158;16.464;2023-02-16T04:56:27;2.00;99.90
65044;DHT22;51617;48.158;16.464;2023-02-16T04:58:53;2.10;99.90
65044;DHT22;51617;48.158;16.464;2023-02-16T05:01:21;2.10;99.90
65044;DHT22;51617;48.158;16.464;2023-02-16T05:03:47;2.20;99.90
65044;DHT22;51617;48.158;16.464;2023-02-16T05:06:13;2.30;99.80
65044;DHT22;51617;48.158;16.464;2023-02-16T05:08:39;2.30;99.80
65044;DHT22;51617;48.158;16.464;2023-02-16T05:11:05;2.20;99.90
65044;DHT22;51617;48.158;16.464;2023-02-16T05:13:49;2.30;99.80
65044;DHT22;51617;48.158;16.464;2023-02-16T05:16:33;2.40;99.80
65044;DHT22;51617;48.158;16.464;2023-02-16T05:18:59;2.50;99.70
65044;DHT22;51617;48.158;16.464;2023-02-16T05:21:24;2.50;99.60
65044;DHT22;51617;48.158;16.464;2023-02-16T05:24:04;2.60;99.60
65044;DHT22;51617;48.158;16.464;2023-02-16T05:26:30;2.60;99.40
65044;DHT22;51617;48.158;16.464;2023-02-16T05:28:57;2.60;99.40
65044;DHT22;51617;48.158;16.464;2023-02-16T05:31:23;2.60;99.50
65044;DHT22;51617;48.158;16.464;2023-02-16T05:33:49;2.70;99.40
65044;DHT22;51617;48.158;16.464;2023-02-16T05:36:15;2.80;99.40
65044;DHT22;51617;48.158;16.464;2023-02-16T05:38:41;2.70;99.30
65044;DHT22;51617;48.158;16.464;2023-02-16T05:41:07;2.80;99.40
65044;DHT22;51617;48.158;16.464;2023-02-16T05:43:32;2.80;99.30
65044;DHT22;51617;48.158;16.464;2023-02-16T05:45:58;2.90;99.30
65044;DHT22;51617;48.158;16.464;2023-02-16T05:48:24;2.90;99.30
65044;DHT22;51617;48.158;16.464;2023-02-16T05:50:53;2.90;99.40
65044;DHT22;51617;48.158;16.464;2023-02-16T05:53:19;2.90;99.40
65044;DHT22;51617;48.158;16.464;2023-02-16T05:55:44;2.90;99.50
65044;DHT22;51617;48.158;16.464;2023-02-16T05:58:10;3.00;99.50
65044;DHT22;51617;48.158;16.464;2023-02-16T06:00:36;3.00;99.40
65044;DHT22;51617;48.158;16.464;2023-02-16T06:03:02;3.00;99.40
65044;DHT22;51617;48.158;16.464;2023-02-16T06:05:28;2.90;99.60
65044;DHT22;51617;48.158;16.464;2023-02-16T06:07:54;2.80;99.70
65044;DHT22;51617;48.158;16.464;2023-02-16T06:10:20;2.80;99.80
65044;DHT22;51617;48.158;16.464;2023-02-16T06:12:46;2.90;99.80
65044;DHT22;51617;48.158;16.464;2023-02-16T06:15:11;2.90;99.70
65044;DHT22;51617;48.158;16.464;2023-02-16T06:17:37;3.00;99.70
65044;DHT22;51617;48.158;16.464;2023-02-16T06:20:04;3.00;99.60
65044;DHT22;51617;48.158;16.464;2023-02-16T06:22:29;3.10;99.50
65044;DHT22;51617;48.158;16.464;2023-02-16T06:24:55;3.20;99.40
65044;DHT22;51617;48.158;16.464;2023-02-16T06:27:21;3.20;99.50
65044;DHT22;51617;48.158;16.464;2023-02-16T06:29:47;3.20;99.60
65044;DHT22;51617;48.158;16.464;2023-02-16T06:32:12;3.10;99.80
65044;DHT22;51617;48.158;16.464;2023-02-16T06:34:38;3.30;99.70
65044;DHT22;51617;48.158;16.464;2023-02-16T06:37:04;3.30;99.40
65044;DHT22;51617;48.158;16.464;2023-02-16T06:39:29;3.30;99.20
65044;DHT22;51617;48.158;16.464;2023-02-16T06:41:55;3.20;99.20
65044;DHT22;51617;48.158;16.464;2023-02-16T06:44:21;3.10;99.40
65044;DHT22;51617;48.158;16.464;2023-02-16T06:46:47;3.00;99.60
65044;DHT22;51617;48.158;16.464;2023-02-16T06:49:15;3.00;99.80
65044;DHT22;51617;48.158;16.464;2023-02-16T06:51:42;3.00;99.90
65044;DHT22;51617;48.158;16.464;2023-02-16T06:54:08;3.10;99.80
65044;DHT22;51617;48.158;16.464;2023-02-16T06:56:34;3.20;99.70
65044;DHT22;51617;48.158;16.464;2023-02-16T06:59:00;3.10;99.80
65044;DHT22;51617;48.158;16.464;2023-02-16T07:01:26;3.10;99.90
65044;DHT22;51617;48.158;16.464;2023-02-16T07:03:54;3.10;99.70
65044;DHT22;51617;48.158;16.464;2023-02-16T07:06:21;3.10;99.80
65044;DHT22;51617;48.158;16.464;2023-02-16T07:08:47;3.10;99.90
65044;DHT22;51617;48.158;16.464;2023-02-16T07:11:13;3.10;99.90
65044;DHT22;51617;48.158;16.464;2023-02-16T07:13:39;3.20;99.90
65044;DHT22;51617;48.158;16.464;2023-02-16T07:16:05;3.20;99.90
65044;DHT22;51617;48.158;16.464;2023-02-16T07:18:32;3.30;99.80
65044;DHT22;51617;48.158;16.464;2023-02-16T07:20:58;3.30;99.50
65044;DHT22;51617;48.158;16.464;2023-02-16T07:23:25;3.40;99.50
65044;DHT22;51617;48.158;16.464;2023-02-16T07:25:50;3.40;99.40
65044;DHT22;51617;48.158;16.464;2023-02-16T07:28:16;3.50;99.50
65044;DHT22;51617;48.158;16.464;2023-02-16T07:30:43;3.50;99.60
65044;DHT22;51617;48.158;16.464;2023-02-16T07:33:09;3.60;99.40
65044;DHT22;51617;48.158;16.464;2023-02-16T07:35:35;3.70;99.20
65044;DHT22;51617;48.158;16.464;2023-02-16T07:38:01;3.70;99.10
65044;DHT22;51617;48.158;16.464;2023-02-16T07:40:27;3.70;99.00
65044;DHT22;51617;48.158;16.464;2023-02-16T07:42:53;3.70;99.00
65044;DHT22;51617;48.158;16.464;2023-02-16T07:45:19;3.80;98.80
65044;DHT22;51617;48.158;16.464;2023-02-16T07:47:44;3.80;98.80
65044;DHT22;51617;48.158;16.464;2023-02-16T07:50:10;3.90;98.80
65044;DHT22;51617;48.158;16.464;2023-02-16T07:52:36;3.90;98.60
65044;DHT22;51617;48.158;16.464;2023-02-16T07:55:02;3.90;98.70
65044;DHT22;51617;48.158;16.464;2023-02-16T07:57:28;4.00;98.70
65044;DHT22;51617;48.158;16.464;2023-02-16T07:59:54;4.00;98.50
65044;DHT22;51617;48.158;16.464;2023-02-16T08:02:21;4.10;98.30
65044;DHT22;51617;48.158;16.464;2023-02-16T08:04:47;4.10;98.30
65044;DHT22;51617;48.158;16.464;2023-02-16T08:07:15;4.00;98.00
65044;DHT22;51617;48.158;16.464;2023-02-16T08:09:41;3.80;98.60
65044;DHT22;51617;48.158;16.464;2023-02-16T08:12:11;3.80;98.90
65044;DHT22;51617;48.158;16.464;2023-02-16T08:14:37;3.80;98.90
65044;DHT22;51617;48.158;16.464;2023-02-16T08:17:04;3.90;98.70
65044;DHT22;51617;48.158;16.464;2023-02-16T08:19:30;4.00;98.60
65044;DHT22;51617;48.158;16.464;2023-02-16T08:21:57;4.00;98.80
65044;DHT22;51617;48.158;16.464;2023-02-16T08:24:24;3.90;98.90
65044;DHT22;51617;48.158;16.464;2023-02-16T08:26:50;4.00;98.60
65044;DHT22;51617;48.158;16.464;2023-02-16T08:29:19;4.00;98.50
65044;DHT22;51617;48.158;16.464;2023-02-16T08:31:46;4.00;98.60
65044;DHT22;51617;48.158;16.464;2023-02-16T08:34:13;4.00;98.50
65044;DHT22;51617;48.158;16.464;2023-02-16T08:36:41;4.10;98.40
65044;DHT22;51617;48.158;16.464;2023-02-16T08:39:13;4.10;98.30
65044;DHT22;51617;48.158;16.464;2023-02-16T08:41:40;4.10;98.30
65044;DHT22;51617;48.158;16.464;2023-02-16T08:44:07;4.20;98.30
65044;DHT22;51617;48.158;16.464;2023-02-16T08:46:35;4.30;98.00
65044;DHT22;51617;48.158;16.464;2023-02-16T08:49:03;4.40;98.00
65044;DHT22;51617;48.158;16.464;2023-02-16T08:51:32;4.50;97.70
65044;DHT22;51617;48.158;16.464;2023-02-16T08:54:03;4.50;97.60
65044;DHT22;51617;48.158;16.464;2023-02-16T08:56:30;4.60;97.40
65044;DHT22;51617;48.158;16.464;2023-02-16T08:58:57;4.60;97.40
65044;DHT22;51617;48.158;16.464;2023-02-16T09:01:23;4.60;97.40
65044;DHT22;51617;48.158;16.464;2023-02-16T09:03:50;4.50;97.60
65044;DHT22;51617;48.158;16.464;2023-02-16T09:06:17;4.50;97.80
65044;DHT22;51617;48.158;16.464;2023-02-16T09:08:52;4.50;97.90
65044;DHT22;51617;48.158;16.464;2023-02-16T09:11:19;4.80;97.50
65044;DHT22;51617;48.158;16.464;2023-02-16T09:13:45;4.90;97.10
65044;DHT22;51617;48.158;16.464;2023-02-16T09:16:20;4.90;97.10
65044;DHT22;51617;48.158;16.464;2023-02-16T09:18:47;5.00;97.10
65044;DHT22;51617;48.158;16.464;2023-02-16T09:21:15;4.90;97.20
65044;DHT22;51617;48.158;16.464;2023-02-16T09:23:43;5.00;97.10
65044;DHT22;51617;48.158;16.464;2023-02-16T09:26:11;5.00;97.10
65044;DHT22;51617;48.158;16.464;2023-02-16T09:28:38;5.10;96.80
65044;DHT22;51617;48.158;16.464;2023-02-16T09:31:41;5.00;96.90
65044;DHT22;51617;48.158;16.464;2023-02-16T09:34:02;4.80;97.40
65044;DHT22;51617;48.158;16.464;2023-02-16T09:36:29;5.10;97.40
65044;DHT22;51617;48.158;16.464;2023-02-16T09:38:55;5.40;96.90
65044;DHT22;51617;48.158;16.464;2023-02-16T09:46:41;5.40;95.80
65044;DHT22;51617;48.158;16.464;2023-02-16T09:54:57;5.40;96.20
65044;DHT22;51617;48.158;16.464;2023-02-16T09:57:41;5.50;96.10
65044;DHT22;51617;48.158;16.464;2023-02-16T10:03:41;5.60;95.70
65044;DHT22;51617;48.158;16.464;2023-02-16T10:09:16;5.80;95.70
65044;DHT22;51617;48.158;16.464;2023-02-16T10:11:47;5.90;95.30
65044;DHT22;51617;48.158;16.464;2023-02-16T10:14:37;5.90;95.30
65044;DHT22;51617;48.158;16.464;2023-02-16T10:17:24;6.00;95.50
65044;DHT22;51617;48.158;16.464;2023-02-16T10:20:30;6.00;95.50
65044;DHT22;51617;48.158;16.464;2023-02-16T10:25:45;6.20;95.10
65044;DHT22;51617;48.158;16.464;2023-02-16T10:28:19;6.30;94.90
65044;DHT22;51617;48.158;16.464;2023-02-16T10:30:56;6.30;94.90
65044;DHT22;51617;48.158;16.464;2023-02-16T10:33:32;6.50;94.80
65044;DHT22;51617;48.158;16.464;2023-02-16T10:41:41;6.60;94.10
65044;DHT22;51617;48.158;16.464;2023-02-16T10:44:17;6.40;94.40
65044;DHT22;51617;48.158;16.464;2023-02-16T10:46:49;6.50;94.40
65044;DHT22;51617;48.158;16.464;2023-02-16T10:49:17;6.50;94.00
65044;DHT22;51617;48.158;16.464;2023-02-16T10:51:47;6.40;94.20
65044;DHT22;51617;48.158;16.464;2023-02-16T10:54:19;6.50;94.30
65044;DHT22;51617;48.158;16.464;2023-02-16T10:57:00;6.50;94.20
65044;DHT22;51617;48.158;16.464;2023-02-16T10:59:41;6.60;94.50
65044;DHT22;51617;48.158;16.464;2023-02-16T11:04:49;6.50;94.70
65044;DHT22;51617;48.158;16.464;2023-02-16T11:07:24;6.40;95.00
65044;DHT22;51617;48.158;16.464;2023-02-16T11:09:52;6.50;94.90
65044;DHT22;51617;48.158;16.464;2023-02-16T11:12:31;6.60;94.60
65044;DHT22;51617;48.158;16.464;2023-02-16T11:15:03;6.80;94.40
65044;DHT22;51617;48.158;16.464;2023-02-16T11:17:46;6.70;94.30
65044;DHT22;51617;48.158;16.464;2023-02-16T11:20:28;6.80;94.10
65044;DHT22;51617;48.158;16.464;2023-02-16T11:23:13;6.80;94.40
65044;DHT22;51617;48.158;16.464;2023-02-16T11:25:39;6.80;94.70
65044;DHT22;51617;48.158;16.464;2023-02-16T11:28:05;6.90;94.40
65044;DHT22;51617;48.158;16.464;2023-02-16T11:33:16;7.00;94.30
65044;DHT22;51617;48.158;16.464;2023-02-16T11:35:44;7.20;94.20
65044;DHT22;51617;48.158;16.464;2023-02-16T11:38:31;7.20;93.90
65044;DHT22;51617;48.158;16.464;2023-02-16T11:40:59;7.20;94.00
65044;DHT22;51617;48.158;16.464;2023-02-16T11:43:28;7.20;94.00
65044;DHT22;51617;48.158;16.464;2023-02-16T11:45:58;7.40;93.90
65044;DHT22;51617;48.158;16.464;2023-02-16T11:48:32;7.50;93.70
65044;DHT22;51617;48.158;16.464;2023-02-16T11:51:00;7.50;93.80
65044;DHT22;51617;48.158;16.464;2023-02-16T11:53:31;7.70;93.70
65044;DHT22;51617;48.158;16.464;2023-02-16T11:58:43;7.90;93.50
65044;DHT22;51617;48.158;16.464;2023-02-16T12:01:32;7.90;93.40
65044;DHT22;51617;48.158;16.464;2023-02-16T12:04:33;8.10;93.20
65044;DHT22;51617;48.158;16.464;2023-02-16T12:10:25;8.20;92.80
65044;DHT22;51617;48.158;16.464;2023-02-16T12:12:59;8.20;92.60
65044;DHT22;51617;48.158;16.464;2023-02-16T12:15:53;8.20;93.00
65044;DHT22;51617;48.158;16.464;2023-02-16T12:18:42;8.30;92.80
65044;DHT22;51617;48.158;16.464;2023-02-16T12:45:47;8.90;91.30
65044;DHT22;51617;48.158;16.464;2023-02-16T12:50:51;8.80;91.70
65044;DHT22;51617;48.158;16.464;2023-02-16T12:53:47;8.80;91.60
65044;DHT22;51617;48.158;16.464;2023-02-16T12:56:23;8.90;91.70
65044;DHT22;51617;48.158;16.464;2023-02-16T12:58:55;8.90;91.60
65044;DHT22;51617;48.158;16.464;2023-02-16T13:01:27;8.90;91.50
65044;DHT22;51617;48.158;16.464;2023-02-16T13:04:34;8.90;91.60
65044;DHT22;51617;48.158;16.464;2023-02-16T13:07:06;9.00;91.60
65044;DHT22;51617;48.158;16.464;2023-02-16T13:15:05;8.90;91.70
65044;DHT22;51617;48.158;16.464;2023-02-16T13:17:40;8.90;91.60
65044;DHT22;51617;48.158;16.464;2023-02-16T13:20:15;8.80;91.90
65044;DHT22;51617;48.158;16.464;2023-02-16T13:32:08;9.20;90.90
65044;DHT22;51617;48.158;16.464;2023-02-16T13:37:57;9.20;90.50
65044;DHT22;51617;48.158;16.464;2023-02-16T13:40:50;9.20;90.80
65044;DHT22;51617;48.158;16.464;2023-02-16T13:46:32;9.40;90.70
65044;DHT22;51617;48.158;16.464;2023-02-16T13:49:00;9.50;90.70
65044;DHT22;51617;48.158;16.464;2023-02-16T13:51:28;9.40;90.60
65044;DHT22;51617;48.158;16.464;2023-02-16T13:54:04;9.50;90.80
65044;DHT22;51617;48.158;16.464;2023-02-16T13:56:35;9.40;90.50
65044;DHT22;51617;48.158;16.464;2023-02-16T14:01:50;9.40;90.80
65044;DHT22;51617;48.158;16.464;2023-02-16T14:19:54;9.40;90.50
65044;DHT22;51617;48.158;16.464;2023-02-16T14:27:48;9.40;90.80
65044;DHT22;51617;48.158;16.464;2023-02-16T14:30:34;9.40;90.70
65044;DHT22;51617;48.158;16.464;2023-02-16T14:41:00;9.50;90.50
65044;DHT22;51617;48.158;16.464;2023-02-16T14:52:35;9.60;90.40
65044;DHT22;51617;48.158;16.464;2023-02-16T15:03:43;9.60;90.40
65044;DHT22;51617;48.158;16.464;2023-02-16T15:06:29;9.50;90.60
65044;DHT22;51617;48.158;16.464;2023-02-16T15:09:03;9.40;90.70
65044;DHT22;51617;48.158;16.464;2023-02-16T15:11:46;9.40;90.90
65044;DHT22;51617;48.158;16.464;2023-02-16T15:14:38;9.40;90.70
65044;DHT22;51617;48.158;16.464;2023-02-16T15:17:06;9.40;90.70
65044;DHT22;51617;48.158;16.464;2023-02-16T15:19:32;9.40;90.70
65044;DHT22;51617;48.158;16.464;2023-02-16T15:24:43;9.30;90.90
65044;DHT22;51617;48.158;16.464;2023-02-16T15:27:20;9.10;91.10
65044;DHT22;51617;48.158;16.464;2023-02-16T15:30:05;9.10;91.40
65044;DHT22;51617;48.158;16.464;2023-02-16T15:32:31;9.10;91.40
65044;DHT22;51617;48.158;16.464;2023-02-16T15:34:57;8.90;91.50
65044;DHT22;51617;48.158;16.464;2023-02-16T15:37:28;8.80;91.70
65044;DHT22;51617;48.158;16.464;2023-02-16T15:40:25;8.70;91.90
65044;DHT22;51617;48.158;16.464;2023-02-16T15:42:53;8.60;92.10
65044;DHT22;51617;48.158;16.464;2023-02-16T15:45:28;8.60;92.10
65044;DHT22;51617;48.158;16.464;2023-02-16T15:48:21;8.50;92.20
65044;DHT22;51617;48.158;16.464;2023-02-16T15:50:49;8.50;92.40
65044;DHT22;51617;48.158;16.464;2023-02-16T15:53:29;8.40;92.60
65044;DHT22;51617;48.158;16.464;2023-02-16T15:55:58;8.30;92.70
65044;DHT22;51617;48.158;16.464;2023-02-16T15:58:24;8.20;92.80
65044;DHT22;51617;48.158;16.464;2023-02-16T16:00:51;8.10;93.20
65044;DHT22;51617;48.158;16.464;2023-02-16T16:03:19;7.90;93.40
65044;DHT22;51617;48.158;16.464;2023-02-16T16:05:57;7.90;93.50
65044;DHT22;51617;48.158;16.464;2023-02-16T16:08:26;7.90;93.60
65044;DHT22;51617;48.158;16.464;2023-02-16T16:10:52;7.80;93.50
65044;DHT22;51617;48.158;16.464;2023-02-16T16:13:27;7.70;93.60
65044;DHT22;51617;48.158;16.464;2023-02-16T16:15:56;7.60;93.90
65044;DHT22;51617;48.158;16.464;2023-02-16T16:18:39;7.50;94.10
65044;DHT22;51617;48.158;16.464;2023-02-16T16:23:38;7.30;94.50
65044;DHT22;51617;48.158;16.464;2023-02-16T16:26:24;7.20;94.60
65044;DHT22;51617;48.158;16.464;2023-02-16T16:28:52;7.10;94.70
65044;DHT22;51617;48.158;16.464;2023-02-16T16:34:04;6.90;94.90
65044;DHT22;51617;48.158;16.464;2023-02-16T16:36:54;6.80;95.10
65044;DHT22;51617;48.158;16.464;2023-02-16T16:39:26;6.70;95.30
65044;DHT22;51617;48.158;16.464;2023-02-16T16:44:39;6.50;95.60
65044;DHT22;51617;48.158;16.464;2023-02-16T16:52:45;6.30;95.80
65044;DHT22;51617;48.158;16.464;2023-02-16T16:55:31;6.20;96.00
65044;DHT22;51617;48.158;16.464;2023-02-16T16:58:05;6.20;96.10
65044;DHT22;51617;48.158;16.464;2023-02-16T17:00:35;6.20;96.10
65044;DHT22;51617;48.158;16.464;2023-02-16T17:03:05;6.10;96.30
65044;DHT22;51617;48.158;16.464;2023-02-16T17:05:33;6.00;96.40
65044;DHT22;51617;48.158;16.464;2023-02-16T17:08:00;5.90;96.70
65044;DHT22;51617;48.158;16.464;2023-02-16T17:10:26;5.80;96.90
65044;DHT22;51617;48.158;16.464;2023-02-16T17:12:55;5.70;97.00
65044;DHT22;51617;48.158;16.464;2023-02-16T17:18:04;5.70;97.10
65044;DHT22;51617;48.158;16.464;2023-02-16T17:20:31;5.70;97.10
65044;DHT22;51617;48.158;16.464;2023-02-16T17:22:57;5.70;97.10
65044;DHT22;51617;48.158;16.464;2023-02-16T17:25:30;5.70;97.10
65044;DHT22;51617;48.158;16.464;2023-02-16T17:27:55;5.70;97.00
65044;DHT22;51617;48.158;16.464;2023-02-16T17:30:22;5.70;97.20
65044;DHT22;51617;48.158;16.464;2023-02-16T17:32:48;5.50;97.40
65044;DHT22;51617;48.158;16.464;2023-02-16T17:35:14;5.40;97.70
65044;DHT22;51617;48.158;16.464;2023-02-16T17:37:40;5.40;97.70
65044;DHT22;51617;48.158;16.464;2023-02-16T17:40:12;5.40;97.80
65044;DHT22;51617;48.158;16.464;2023-02-16T17:42:42;5.40;97.90
65044;DHT22;51617;48.158;16.464;2023-02-16T17:45:08;5.40;97.90
65044;DHT22;51617;48.158;16.464;2023-02-16T17:47:34;5.30;97.90
65044;DHT22;51617;48.158;16.464;2023-02-16T17:50:02;5.30;97.70
65044;DHT22;51617;48.158;16.464;2023-02-16T17:52:28;5.10;98.20
65044;DHT22;51617;48.158;16.464;2023-02-16T17:54:54;5.00;98.30
65044;DHT22;51617;48.158;16.464;2023-02-16T17:57:20;5.00;98.30
65044;DHT22;51617;48.158;16.464;2023-02-16T17:59:52;5.00;97.80
65044;DHT22;51617;48.158;16.464;2023-02-16T18:02:18;4.80;98.80
65044;DHT22;51617;48.158;16.464;2023-02-16T18:04:44;4.60;99.20
65044;DHT22;51617;48.158;16.464;2023-02-16T18:07:14;4.70;98.90
65044;DHT22;51617;48.158;16.464;2023-02-16T18:09:40;4.70;98.70
65044;DHT22;51617;48.158;16.464;2023-02-16T18:12:07;4.60;98.90
65044;DHT22;51617;48.158;16.464;2023-02-16T18:14:34;4.60;99.10
65044;DHT22;51617;48.158;16.464;2023-02-16T18:17:02;4.60;99.10
65044;DHT22;51617;48.158;16.464;2023-02-16T18:19:29;4.60;98.90
65044;DHT22;51617;48.158;16.464;2023-02-16T18:21:55;4.60;98.90
65044;DHT22;51617;48.158;16.464;2023-02-16T18:24:22;4.60;99.10
65044;DHT22;51617;48.158;16.464;2023-02-16T18:26:50;4.50;99.30
65044;DHT22;51617;48.158;16.464;2023-02-16T18:29:19;4.60;99.20
65044;DHT22;51617;48.158;16.464;2023-02-16T18:31:46;4.60;99.30
65044;DHT22;51617;48.158;16.464;2023-02-16T18:34:15;4.40;98.90
65044;DHT22;51617;48.158;16.464;2023-02-16T18:36:41;4.40;98.90
65044;DHT22;51617;48.158;16.464;2023-02-16T18:39:08;4.20;99.40
65044;DHT22;51617;48.158;16.464;2023-02-16T18:41:35;4.20;99.60
65044;DHT22;51617;48.158;16.464;2023-02-16T18:44:02;4.20;99.50
65044;DHT22;51617;48.158;16.464;2023-02-16T18:46:28;4.30;99.50
65044;DHT22;51617;48.158;16.464;2023-02-16T18:48:54;4.40;99.40
65044;DHT22;51617;48.158;16.464;2023-02-16T18:51:20;4.30;99.30
65044;DHT22;51617;48.158;16.464;2023-02-16T18:53:50;4.30;99.00